sensor_id;sensor_type;location;lat;lon;timestamp;pressure;altitude;pressure_sealevel;temperature;humidity
72038;BME280;59900;50.788;12.904;2023-09-12T00:00:15;97225.94;;;19.53;64.29
72038;BME280;59900;50.788;12.904;2023-09-12T00:02:40;97216.06;;;19.49;64.43
72038;BME280;59900;50.788;12.904;2023-09-12T00:05:06;97224.84;;;19.49;64.88
72038;BME280;59900;50.788;12.904;2023-09-12T00:07:31;97226.22;;;19.52;63.91
72038;BME280;59900;50.788;12.904;2023-09-12T00:09:57;97224.06;;;19.54;64.04
72038;BME280;59900;50.788;12.904;2023-09-12T00:12:23;97221.63;;;19.47;63.91
72038;BME280;59900;50.788;12.904;2023-09-12T00:14:49;97216.06;;;19.49;63.85
72038;BME280;59900;50.788;12.904;2023-09-12T00:17:15;97222.72;;;19.51;64.48
72038;BME280;59900;50.788;12.904;2023-09-12T00:19:40;97220.06;;;19.51;63.51
72038;BME280;59900;50.788;12.904;2023-09-12T00:22:05;97222.69;;;19.46;63.95
72038;BME280;59900;50.788;12.904;2023-09-12T00:24:31;97217.28;;;19.36;64.32
72038;BME280;59900;50.788;12.904;2023-09-12T00:26:56;97217.75;;;19.23;64.58
72038;BME280;59900;50.788;12.904;2023-09-12T00:29:21;97214.53;;;19.21;64.18
72038;BME280;59900;50.788;12.904;2023-09-12T00:31:46;97214.00;;;19.19;64.65
72038;BME280;59900;50.788;12.904;2023-09-12T00:34:16;97216.16;;;19.22;64.77
72038;BME280;59900;50.788;12.904;2023-09-12T00:36:42;97214.81;;;19.20;64.54
72038;BME280;59900;50.788;12.904;2023-09-12T00:39:07;97218.81;;;19.22;64.75
72038;BME280;59900;50.788;12.904;2023-09-12T00:41:32;97213.50;;;19.22;64.94
72038;BME280;59900;50.788;12.904;2023-09-12T00:43:57;97215.59;;;19.20;64.78
72038;BME280;59900;50.788;12.904;2023-09-12T00:46:23;97214.81;;;19.20;64.55
72038;BME280;59900;50.788;12.904;2023-09-12T00:48:51;97204.16;;;19.20;65.15
72038;BME280;59900;50.788;12.904;2023-09-12T00:51:17;97212.38;;;19.13;64.51
72038;BME280;59900;50.788;12.904;2023-09-12T00:53:44;97208.06;;;19.02;64.79
72038;BME280;59900;50.788;12.904;2023-09-12T00:56:10;97207.47;;;18.95;65.98
72038;BME280;59900;50.788;12.904;2023-09-12T00:58:35;97211.97;;;18.89;65.55
72038;BME280;59900;50.788;12.904;2023-09-12T01:01:01;97208.22;;;18.90;65.35
72038;BME280;59900;50.788;12.904;2023-09-12T01:03:27;97211.47;;;18.97;64.79
72038;BME280;59900;50.788;12.904;2023-09-12T01:05:53;97211.78;;;19.01;65.22
72038;BME280;59900;50.788;12.904;2023-09-12T01:08:18;97209.84;;;18.91;64.84
72038;BME280;59900;50.788;12.904;2023-09-12T01:10:44;97210.28;;;18.78;65.60
72038;BME280;59900;50.788;12.904;2023-09-12T01:13:13;97211.84;;;18.74;65.74
72038;BME280;59900;50.788;12.904;2023-09-12T01:15:39;97214.78;;;18.73;65.67
72038;BME280;59900;50.788;12.904;2023-09-12T01:18:04;97218.69;;;18.65;66.13
72038;BME280;59900;50.788;12.904;2023-09-12T01:20:32;97218.09;;;18.58;66.39
72038;BME280;59900;50.788;12.904;2023-09-12T01:26:13;97214.41;;;18.32;67.34
72038;BME280;59900;50.788;12.904;2023-09-12T01:28:44;97220.16;;;18.19;68.37
72038;BME280;59900;50.788;12.904;2023-09-12T01:31:10;97220.34;;;18.13;68.73
72038;BME280;59900;50.788;12.904;2023-09-12T01:33:37;97215.22;;;18.06;68.88
72038;BME280;59900;50.788;12.904;2023-09-12T01:36:03;97214.66;;;18.04;69.23
72038;BME280;59900;50.788;12.904;2023-09-12T01:38:28;97216.28;;;18.05;69.41
72038;BME280;59900;50.788;12.904;2023-09-12T01:40:55;97221.84;;;18.04;69.55
72038;BME280;59900;50.788;12.904;2023-09-12T01:43:22;97221.84;;;18.04;69.70
72038;BME280;59900;50.788;12.904;2023-09-12T01:45:50;97224.50;;;18.04;69.24
72038;BME280;59900;50.788;12.904;2023-09-12T01:48:20;97213.63;;;18.05;68.69
72038;BME280;59900;50.788;12.904;2023-09-12T01:50:47;97224.00;;;18.07;69.18
72038;BME280;59900;50.788;12.904;2023-09-12T01:53:12;97219.50;;;18.07;69.49
72038;BME280;59900;50.788;12.904;2023-09-12T01:55:39;97225.63;;;18.08;68.91
72038;BME280;59900;50.788;12.904;2023-09-12T01:58:05;97212.31;;;18.08;69.10
72038;BME280;59900;50.788;12.904;2023-09-12T02:00:32;97219.50;;;18.07;69.60
72038;BME280;59900;50.788;12.904;2023-09-12T02:02:58;97227.78;;;18.11;69.17
72038;BME280;59900;50.788;12.904;2023-09-12T02:05:23;97222.97;;;18.08;69.62
72038;BME280;59900;50.788;12.904;2023-09-12T02:07:48;97225.03;;;18.06;68.88
72038;BME280;59900;50.788;12.904;2023-09-12T02:10:14;97224.53;;;18.09;68.76
72038;BME280;59900;50.788;12.904;2023-09-12T02:12:40;97226.66;;;18.07;69.11
72038;BME280;59900;50.788;12.904;2023-09-12T02:15:06;97226.66;;;18.07;68.77
72038;BME280;59900;50.788;12.904;2023-09-12T02:17:32;97217.56;;;18.03;68.26
72038;BME280;59900;50.788;12.904;2023-09-12T02:19:57;97220.22;;;18.03;68.63
72038;BME280;59900;50.788;12.904;2023-09-12T02:22:22;97220.19;;;17.98;69.06
72038;BME280;59900;50.788;12.904;2023-09-12T02:24:49;97217.47;;;17.92;69.24
72038;BME280;59900;50.788;12.904;2023-09-12T02:27:14;97220.50;;;17.79;69.48
72038;BME280;59900;50.788;12.904;2023-09-12T02:29:40;97219.91;;;17.72;69.48
72038;BME280;59900;50.788;12.904;2023-09-12T02:32:07;97217.25;;;17.72;69.52
72038;BME280;59900;50.788;12.904;2023-09-12T02:34:33;97214.03;;;17.70;69.36
72038;BME280;59900;50.788;12.904;2023-09-12T02:36:59;97221.28;;;17.75;69.23
72038;BME280;59900;50.788;12.904;2023-09-12T02:39:24;97218.44;;;17.81;68.78
72038;BME280;59900;50.788;12.904;2023-09-12T02:41:49;97218.16;;;17.83;68.95
72038;BME280;59900;50.788;12.904;2023-09-12T02:44:14;97212.66;;;17.89;68.81
72038;BME280;59900;50.788;12.904;2023-09-12T02:46:40;97218.53;;;17.91;68.37
72038;BME280;59900;50.788;12.904;2023-09-12T02:49:05;97213.22;;;17.91;68.63
72038;BME280;59900;50.788;12.904;2023-09-12T02:51:31;97213.69;;;17.88;68.58
72038;BME280;59900;50.788;12.904;2023-09-12T02:53:56;97200.91;;;17.85;68.75
72038;BME280;59900;50.788;12.904;2023-09-12T02:56:21;97206.22;;;17.85;68.80
72038;BME280;59900;50.788;12.904;2023-09-12T02:58:47;97204.41;;;17.91;68.55
72038;BME280;59900;50.788;12.904;2023-09-12T03:01:17;97201.53;;;17.92;68.26
72038;BME280;59900;50.788;12.904;2023-09-12T03:03:42;97200.53;;;17.99;67.61
72038;BME280;59900;50.788;12.904;2023-09-12T03:06:09;97194.38;;;17.93;67.82
72038;BME280;59900;50.788;12.904;2023-09-12T03:08:34;97190.41;;;17.96;67.92
72038;BME280;59900;50.788;12.904;2023-09-12T03:10:59;97195.22;;;17.99;67.82
72038;BME280;59900;50.788;12.904;2023-09-12T03:13:27;97185.63;;;17.98;67.58
72038;BME280;59900;50.788;12.904;2023-09-12T03:15:52;97185.63;;;17.98;67.32
72038;BME280;59900;50.788;12.904;2023-09-12T03:18:18;97182.41;;;17.96;67.52
72038;BME280;59900;50.788;12.904;2023-09-12T03:20:43;97177.41;;;17.99;67.72
72038;BME280;59900;50.788;12.904;2023-09-12T03:23:08;97180.56;;;17.96;67.72
72038;BME280;59900;50.788;12.904;2023-09-12T03:25:37;97184.56;;;17.99;67.49
72038;BME280;59900;50.788;12.904;2023-09-12T03:28:06;97184.56;;;17.99;67.49
72038;BME280;59900;50.788;12.904;2023-09-12T03:30:36;97181.91;;;17.99;67.01
72038;BME280;59900;50.788;12.904;2023-09-12T03:33:02;97189.22;;;17.86;67.60
72038;BME280;59900;50.788;12.904;2023-09-12T03:35:28;97187.06;;;17.83;67.63
72038;BME280;59900;50.788;12.904;2023-09-12T03:37:54;97185.47;;;17.82;68.07
72038;BME280;59900;50.788;12.904;2023-09-12T03:40:19;97186.53;;;17.81;67.78
72038;BME280;59900;50.788;12.904;2023-09-12T03:42:44;97192.63;;;17.82;67.55
72038;BME280;59900;50.788;12.904;2023-09-12T03:45:10;97195.56;;;17.80;67.90
72038;BME280;59900;50.788;12.904;2023-09-12T03:47:35;97195.84;;;17.84;68.04
72038;BME280;59900;50.788;12.904;2023-09-12T03:50:00;97197.72;;;17.83;68.14
72038;BME280;59900;50.788;12.904;2023-09-12T03:52:26;97198.75;;;17.82;68.04
72038;BME280;59900;50.788;12.904;2023-09-12T03:54:51;97198.09;;;17.70;68.33
72038;BME280;59900;50.788;12.904;2023-09-12T03:57:16;97191.59;;;17.61;68.66
72038;BME280;59900;50.788;12.904;2023-09-12T03:59:42;97192.66;;;17.60;68.52
72038;BME280;59900;50.788;12.904;2023-09-12T04:02:07;97196.13;;;17.61;68.48
72038;BME280;59900;50.788;12.904;2023-09-12T04:04:32;97190.75;;;17.56;68.88
72038;BME280;59900;50.788;12.904;2023-09-12T04:06:57;97184.53;;;17.50;69.21
72038;BME280;59900;50.788;12.904;2023-09-12T04:09:23;97193.50;;;17.44;68.90
72038;BME280;59900;50.788;12.904;2023-09-12T04:11:48;97193.22;;;17.41;69.54
72038;BME280;59900;50.788;12.904;2023-09-12T04:14:14;97184.94;;;17.37;69.33
72038;BME280;59900;50.788;12.904;2023-09-12T04:16:39;97195.47;;;17.32;70.00
72038;BME280;59900;50.788;12.904;2023-09-12T04:19:05;97186.94;;;17.30;69.78
72038;BME280;59900;50.788;12.904;2023-09-12T04:21:30;97184.78;;;17.27;69.76
72038;BME280;59900;50.788;12.904;2023-09-12T04:23:55;97192.25;;;17.30;70.11
72038;BME280;59900;50.788;12.904;2023-09-12T04:26:20;97189.94;;;17.33;70.18
72038;BME280;59900;50.788;12.904;2023-09-12T04:28:48;97191.81;;;17.38;69.81
72038;BME280;59900;50.788;12.904;2023-09-12T04:31:14;97187.91;;;17.41;69.67
72038;BME280;59900;50.788;12.904;2023-09-12T04:33:39;97189.97;;;17.38;69.87
72038;BME280;59900;50.788;12.904;2023-09-12T04:36:04;97198.53;;;17.41;69.87
72038;BME280;59900;50.788;12.904;2023-09-12T04:38:30;97190.56;;;17.41;69.39
72038;BME280;59900;50.788;12.904;2023-09-12T04:40:56;97191.03;;;17.38;69.79
72038;BME280;59900;50.788;12.904;2023-09-12T04:43:23;97188.00;;;17.29;69.87
72038;BME280;59900;50.788;12.904;2023-09-12T04:45:48;97185.59;;;17.27;69.73
72038;BME280;59900;50.788;12.904;2023-09-12T04:48:14;97182.44;;;17.30;69.46
72038;BME280;59900;50.788;12.904;2023-09-12T04:50:42;97183.00;;;17.32;69.57
72038;BME280;59900;50.788;12.904;2023-09-12T04:53:07;97184.34;;;17.35;69.61
72038;BME280;59900;50.788;12.904;2023-09-12T04:55:35;97174.84;;;17.39;69.68
72038;BME280;59900;50.788;12.904;2023-09-12T04:58:01;97179.13;;;17.40;69.14
72038;BME280;59900;50.788;12.904;2023-09-12T05:00:26;97178.81;;;17.36;69.11
72038;BME280;59900;50.788;12.904;2023-09-12T05:02:51;97175.59;;;17.34;69.58
72038;BME280;59900;50.788;12.904;2023-09-12T05:05:16;97172.63;;;17.31;69.35
72038;BME280;59900;50.788;12.904;2023-09-12T05:07:42;97179.78;;;17.30;69.58
72038;BME280;59900;50.788;12.904;2023-09-12T05:10:07;97183.81;;;17.33;69.76
72038;BME280;59900;50.788;12.904;2023-09-12T05:12:32;97184.94;;;17.37;69.09
72038;BME280;59900;50.788;12.904;2023-09-12T05:14:58;97186.28;;;17.40;68.99
72038;BME280;59900;50.788;12.904;2023-09-12T05:17:23;97193.22;;;17.41;69.16
72038;BME280;59900;50.788;12.904;2023-09-12T05:19:48;97189.53;;;17.47;69.23
72038;BME280;59900;50.788;12.904;2023-09-12T05:22:14;97184.81;;;17.49;69.03
72038;BME280;59900;50.788;12.904;2023-09-12T05:24:39;97195.97;;;17.51;68.69
72038;BME280;59900;50.788;12.904;2023-09-12T05:27:04;97193.66;;;17.54;68.74
72038;BME280;59900;50.788;12.904;2023-09-12T05:29:30;97191.31;;;17.58;69.08
72038;BME280;59900;50.788;12.904;2023-09-12T05:31:55;97196.91;;;17.61;69.20
72038;BME280;59900;50.788;12.904;2023-09-12T05:34:21;97195.91;;;17.67;69.30
72038;BME280;59900;50.788;12.904;2023-09-12T05:36:46;97199.97;;;17.70;68.98
72038;BME280;59900;50.788;12.904;2023-09-12T05:39:11;97204.78;;;17.73;69.03
72038;BME280;59900;50.788;12.904;2023-09-12T05:41:39;97209.06;;;17.79;68.61
72038;BME280;59900;50.788;12.904;2023-09-12T05:44:04;97205.19;;;17.86;68.53
72038;BME280;59900;50.788;12.904;2023-09-12T05:46:29;97210.25;;;17.88;68.34
72038;BME280;59900;50.788;12.904;2023-09-12T05:48:54;97212.63;;;17.84;68.10
72038;BME280;59900;50.788;12.904;2023-09-12T05:51:20;97213.88;;;17.82;68.01
72038;BME280;59900;50.788;12.904;2023-09-12T05:53:45;97216.31;;;17.83;68.53
72038;BME280;59900;50.788;12.904;2023-09-12T05:56:10;97214.19;;;17.85;68.32
72038;BME280;59900;50.788;12.904;2023-09-12T05:58:35;97220.63;;;17.89;68.28
72038;BME280;59900;50.788;12.904;2023-09-12T06:01:01;97229.19;;;17.97;68.41
72038;BME280;59900;50.788;12.904;2023-09-12T06:03:26;97223.69;;;18.03;68.34
72038;BME280;59900;50.788;12.904;2023-09-12T06:05:51;97226.94;;;18.05;68.30
72038;BME280;59900;50.788;12.904;2023-09-12T06:08:16;97223.81;;;18.13;68.64
72038;BME280;59900;50.788;12.904;2023-09-12T06:10:42;97231.59;;;18.20;68.76
72038;BME280;59900;50.788;12.904;2023-09-12T06:13:07;97234.84;;;18.27;68.10
72038;BME280;59900;50.788;12.904;2023-09-12T06:15:33;97234.63;;;18.33;68.78
72038;BME280;59900;50.788;12.904;2023-09-12T06:17:58;97228.53;;;18.38;68.27
72038;BME280;59900;50.788;12.904;2023-09-12T06:20:23;97234.22;;;18.46;67.77
72038;BME280;59900;50.788;12.904;2023-09-12T06:22:49;97237.50;;;18.54;67.74
72038;BME280;59900;50.788;12.904;2023-09-12T06:25:14;97241.00;;;18.59;67.62
72038;BME280;59900;50.788;12.904;2023-09-12T06:27:39;97234.13;;;18.63;67.52
72038;BME280;59900;50.788;12.904;2023-09-12T06:30:05;97237.38;;;18.70;67.67
72038;BME280;59900;50.788;12.904;2023-09-12T06:32:31;97235.03;;;18.79;67.52
72038;BME280;59900;50.788;12.904;2023-09-12T06:34:56;97233.25;;;18.84;67.35
72038;BME280;59900;50.788;12.904;2023-09-12T06:37:21;97229.53;;;18.90;67.69
72038;BME280;59900;50.788;12.904;2023-09-12T06:39:49;97237.34;;;19.02;67.34
72038;BME280;59900;50.788;12.904;2023-09-12T06:42:14;97232.06;;;19.07;67.25
72038;BME280;59900;50.788;12.904;2023-09-12T06:44:40;97243.78;;;19.11;67.77
72038;BME280;59900;50.788;12.904;2023-09-12T06:47:05;97237.44;;;19.17;67.73
72038;BME280;59900;50.788;12.904;2023-09-12T06:49:30;97240.13;;;19.22;68.04
72038;BME280;59900;50.788;12.904;2023-09-12T06:51:57;97236.19;;;19.30;67.22
72038;BME280;59900;50.788;12.904;2023-09-12T06:54:22;97247.97;;;19.39;67.61
72038;BME280;59900;50.788;12.904;2023-09-12T06:56:48;97253.63;;;19.47;66.87
72038;BME280;59900;50.788;12.904;2023-09-12T06:59:13;97247.25;;;19.53;66.99
72038;BME280;59900;50.788;12.904;2023-09-12T07:01:38;97248.09;;;19.64;67.20
72038;BME280;59900;50.788;12.904;2023-09-12T07:04:04;97243.34;;;19.71;67.48
72038;BME280;59900;50.788;12.904;2023-09-12T07:06:29;97253.50;;;19.79;66.85
72038;BME280;59900;50.788;12.904;2023-09-12T07:08:54;97246.31;;;19.85;66.78
72038;BME280;59900;50.788;12.904;2023-09-12T07:11:20;97240.19;;;19.89;66.56
72038;BME280;59900;50.788;12.904;2023-09-12T07:13:45;97234.63;;;19.96;67.30
72038;BME280;59900;50.788;12.904;2023-09-12T07:16:11;97237.03;;;20.02;66.66
72038;BME280;59900;50.788;12.904;2023-09-12T07:18:37;97241.88;;;20.10;67.09
72038;BME280;59900;50.788;12.904;2023-09-12T07:21:03;97245.88;;;20.18;66.92
72038;BME280;59900;50.788;12.904;2023-09-12T07:23:29;97245.88;;;20.23;66.93
72038;BME280;59900;50.788;12.904;2023-09-12T07:25:55;97245.94;;;20.33;66.60
72038;BME280;59900;50.788;12.904;2023-09-12T07:28:25;97244.88;;;20.39;66.51
72038;BME280;59900;50.788;12.904;2023-09-12T07:30:50;97242.47;;;20.48;66.81
72038;BME280;59900;50.788;12.904;2023-09-12T07:33:16;97239.81;;;20.53;67.23
72038;BME280;59900;50.788;12.904;2023-09-12T07:35:41;97244.91;;;20.59;66.90
72038;BME280;59900;50.788;12.904;2023-09-12T07:38:06;97234.75;;;20.66;67.64
72038;BME280;59900;50.788;12.904;2023-09-12T07:40:32;97239.53;;;20.69;67.39
72038;BME280;59900;50.788;12.904;2023-09-12T07:42:57;97238.47;;;20.76;67.06
72038;BME280;59900;50.788;12.904;2023-09-12T07:45:22;97243.28;;;20.84;67.07
72038;BME280;59900;50.788;12.904;2023-09-12T07:47:48;97244.09;;;20.89;66.81
72038;BME280;59900;50.788;12.904;2023-09-12T07:50:13;97248.88;;;20.97;67.76
72038;BME280;59900;50.788;12.904;2023-09-12T07:52:39;97245.13;;;21.03;68.00
72038;BME280;59900;50.788;12.904;2023-09-12T07:55:05;97246.47;;;21.11;67.11
72038;BME280;59900;50.788;12.904;2023-09-12T07:57:30;97241.66;;;21.18;68.15
72038;BME280;59900;50.788;12.904;2023-09-12T07:59:56;97248.88;;;21.22;68.10
72038;BME280;59900;50.788;12.904;2023-09-12T08:02:21;97242.44;;;21.29;68.10
72038;BME280;59900;50.788;12.904;2023-09-12T08:04:48;97246.19;;;21.33;68.05
72038;BME280;59900;50.788;12.904;2023-09-12T08:07:15;97236.78;;;21.40;67.93
72038;BME280;59900;50.788;12.904;2023-09-12T08:09:51;97243.19;;;21.49;67.30
72038;BME280;59900;50.788;12.904;2023-09-12T08:12:18;97247.19;;;21.57;68.08
72038;BME280;59900;50.788;12.904;2023-09-12T08:14:44;97234.09;;;21.60;68.11
72038;BME280;59900;50.788;12.904;2023-09-12T08:17:10;97242.88;;;21.66;67.05
72038;BME280;59900;50.788;12.904;2023-09-12T08:19:35;97236.44;;;21.72;66.80
72038;BME280;59900;50.788;12.904;2023-09-12T08:22:00;97239.59;;;21.79;67.67
72038;BME280;59900;50.788;12.904;2023-09-12T08:24:26;97238.78;;;21.84;66.80
72038;BME280;59900;50.788;12.904;2023-09-12T08:26:51;97235.81;;;21.90;67.03
72038;BME280;59900;50.788;12.904;2023-09-12T08:29:16;97236.63;;;21.96;66.63
72038;BME280;59900;50.788;12.904;2023-09-12T08:31:41;97237.41;;;22.01;66.70
72038;BME280;59900;50.788;12.904;2023-09-12T08:34:07;97239.78;;;22.03;67.81
72038;BME280;59900;50.788;12.904;2023-09-12T08:36:32;97244.84;;;22.09;67.97
72038;BME280;59900;50.788;12.904;2023-09-12T08:38:58;97243.19;;;22.13;67.69
72038;BME280;59900;50.788;12.904;2023-09-12T08:41:25;97244.53;;;22.16;67.31
72038;BME280;59900;50.788;12.904;2023-09-12T08:43:51;97247.19;;;22.21;67.13
72038;BME280;59900;50.788;12.904;2023-09-12T08:46:17;97236.72;;;22.24;67.62
72038;BME280;59900;50.788;12.904;2023-09-12T08:48:45;97249.00;;;22.30;66.50
72038;BME280;59900;50.788;12.904;2023-09-12T08:51:11;97241.75;;;22.36;64.02
72038;BME280;59900;50.788;12.904;2023-09-12T08:53:37;97238.16;;;22.46;63.64
72038;BME280;59900;50.788;12.904;2023-09-12T08:56:03;97243.78;;;22.49;64.32
72038;BME280;59900;50.788;12.904;2023-09-12T08:58:31;97239.72;;;22.57;63.77
72038;BME280;59900;50.788;12.904;2023-09-12T09:00:57;97239.16;;;22.60;65.18
72038;BME280;59900;50.788;12.904;2023-09-12T09:03:24;97242.88;;;22.64;64.40
72038;BME280;59900;50.788;12.904;2023-09-12T09:05:51;97235.38;;;22.61;64.77
72038;BME280;59900;50.788;12.904;2023-09-12T09:08:17;97239.66;;;22.62;66.67
72038;BME280;59900;50.788;12.904;2023-09-12T09:10:57;97235.69;;;22.59;64.92
72038;BME280;59900;50.788;12.904;2023-09-12T09:13:22;97230.81;;;22.66;61.99
72038;BME280;59900;50.788;12.904;2023-09-12T09:15:47;97241.72;;;22.80;59.99
72038;BME280;59900;50.788;12.904;2023-09-12T09:18:13;97246.97;;;22.90;62.69
72038;BME280;59900;50.788;12.904;2023-09-12T09:20:38;97239.66;;;22.96;60.49
72038;BME280;59900;50.788;12.904;2023-09-12T09:23:06;97240.47;;;22.96;60.51
72038;BME280;59900;50.788;12.904;2023-09-12T09:25:40;97244.06;;;23.15;59.93
72038;BME280;59900;50.788;12.904;2023-09-12T09:28:19;97236.72;;;23.26;60.33
72038;BME280;59900;50.788;12.904;2023-09-12T09:30:47;97235.97;;;23.20;60.71
72038;BME280;59900;50.788;12.904;2023-09-12T09:33:13;97239.13;;;23.27;60.07
72038;BME280;59900;50.788;12.904;2023-09-12T09:35:41;97235.88;;;23.30;62.51
72038;BME280;59900;50.788;12.904;2023-09-12T09:38:07;97236.44;;;23.27;61.61
72038;BME280;59900;50.788;12.904;2023-09-12T09:40:34;97237.22;;;23.28;62.14
72038;BME280;59900;50.788;12.904;2023-09-12T09:45:26;97244.66;;;23.36;59.47
72038;BME280;59900;50.788;12.904;2023-09-12T09:47:51;97237.81;;;23.49;58.03
72038;BME280;59900;50.788;12.904;2023-09-12T09:50:17;97241.44;;;23.63;59.21
72038;BME280;59900;50.788;12.904;2023-09-12T09:52:43;97241.06;;;23.69;57.62
72038;BME280;59900;50.788;12.904;2023-09-12T09:55:13;97239.94;;;23.75;59.33
72038;BME280;59900;50.788;12.904;2023-09-12T09:57:39;97234.13;;;23.68;59.55
72038;BME280;59900;50.788;12.904;2023-09-12T10:00:05;97241.31;;;23.73;59.21
72038;BME280;59900;50.788;12.904;2023-09-12T10:02:35;97243.31;;;23.86;56.19
72038;BME280;59900;50.788;12.904;2023-09-12T10:05:04;97242.56;;;23.80;58.52
72038;BME280;59900;50.788;12.904;2023-09-12T10:07:32;97244.56;;;23.70;60.34
72038;BME280;59900;50.788;12.904;2023-09-12T10:09:58;97244.69;;;23.60;59.18
72038;BME280;59900;50.788;12.904;2023-09-12T10:12:26;97240.06;;;23.65;58.12
72038;BME280;59900;50.788;12.904;2023-09-12T10:14:54;97242.09;;;23.73;58.73
72038;BME280;59900;50.788;12.904;2023-09-12T10:17:23;97238.78;;;23.81;59.82
72038;BME280;59900;50.788;12.904;2023-09-12T10:19:55;97244.88;;;23.87;59.07
72038;BME280;59900;50.788;12.904;2023-09-12T10:22:24;97238.94;;;23.90;59.40
72038;BME280;59900;50.788;12.904;2023-09-12T10:24:51;97246.06;;;23.99;59.27
72038;BME280;59900;50.788;12.904;2023-09-12T10:27:19;97240.84;;;24.08;58.76
72038;BME280;59900;50.788;12.904;2023-09-12T10:29:44;97223.25;;;24.21;52.97
72038;BME280;59900;50.788;12.904;2023-09-12T10:32:14;97236.19;;;24.19;54.58
72038;BME280;59900;50.788;12.904;2023-09-12T10:34:39;97230.78;;;24.37;56.73
72038;BME280;59900;50.788;12.904;2023-09-12T10:37:11;97231.28;;;24.39;54.55
72038;BME280;59900;50.788;12.904;2023-09-12T10:39:37;97236.16;;;24.37;57.49
72038;BME280;59900;50.788;12.904;2023-09-12T10:42:04;97232.09;;;24.40;53.86
72038;BME280;59900;50.788;12.904;2023-09-12T10:44:30;97230.28;;;24.54;56.79
72038;BME280;59900;50.788;12.904;2023-09-12T10:46:57;97233.13;;;24.63;56.47
72038;BME280;59900;50.788;12.904;2023-09-12T10:49:23;97233.50;;;24.70;58.30
72038;BME280;59900;50.788;12.904;2023-09-12T10:51:49;97225.19;;;24.71;56.45
72038;BME280;59900;50.788;12.904;2023-09-12T10:54:22;97227.47;;;24.78;52.31
72038;BME280;59900;50.788;12.904;2023-09-12T10:57:02;97226.84;;;24.86;56.72
72038;BME280;59900;50.788;12.904;2023-09-12T10:59:28;97231.75;;;24.79;56.85
72038;BME280;59900;50.788;12.904;2023-09-12T11:02:35;97221.00;;;24.79;56.96
72038;BME280;59900;50.788;12.904;2023-09-12T11:05:02;97214.84;;;24.78;53.63
72038;BME280;59900;50.788;12.904;2023-09-12T11:12:38;97214.22;;;25.00;50.86
72038;BME280;59900;50.788;12.904;2023-09-12T11:15:04;97213.06;;;25.06;54.84
72038;BME280;59900;50.788;12.904;2023-09-12T11:17:40;97212.59;;;24.85;56.32
72038;BME280;59900;50.788;12.904;2023-09-12T11:20:07;97205.53;;;24.89;52.81
72038;BME280;59900;50.788;12.904;2023-09-12T11:22:39;97201.84;;;24.85;53.75
72038;BME280;59900;50.788;12.904;2023-09-12T11:25:19;97206.16;;;24.86;53.94
72038;BME280;59900;50.788;12.904;2023-09-12T11:28:01;97203.69;;;25.03;52.42
72038;BME280;59900;50.788;12.904;2023-09-12T11:30:28;97197.72;;;25.20;52.09
72038;BME280;59900;50.788;12.904;2023-09-12T11:32:57;97194.34;;;25.28;52.42
72038;BME280;59900;50.788;12.904;2023-09-12T11:35:24;97186.78;;;25.44;52.22
72038;BME280;59900;50.788;12.904;2023-09-12T11:37:55;97187.91;;;25.56;52.76
72038;BME280;59900;50.788;12.904;2023-09-12T11:40:44;97189.78;;;25.70;51.97
72038;BME280;59900;50.788;12.904;2023-09-12T11:43:26;97185.34;;;25.87;52.04
72038;BME280;59900;50.788;12.904;2023-09-12T11:45:52;97180.72;;;26.01;50.38
72038;BME280;59900;50.788;12.904;2023-09-12T11:48:19;97182.31;;;26.16;48.32
72038;BME280;59900;50.788;12.904;2023-09-12T11:50:53;97176.59;;;26.31;49.06
72038;BME280;59900;50.788;12.904;2023-09-12T11:53:27;97178.91;;;26.46;49.07
72038;BME280;59900;50.788;12.904;2023-09-12T11:55:59;97174.00;;;26.48;47.85
72038;BME280;59900;50.788;12.904;2023-09-12T11:58:25;97174.50;;;26.72;48.32
72038;BME280;59900;50.788;12.904;2023-09-12T12:00:56;97177.28;;;26.81;48.23
72038;BME280;59900;50.788;12.904;2023-09-12T12:03:25;97174.66;;;26.98;49.12
72038;BME280;59900;50.788;12.904;2023-09-12T12:05:51;97168.44;;;27.20;47.71
72038;BME280;59900;50.788;12.904;2023-09-12T12:08:17;97178.00;;;27.35;48.73
72038;BME280;59900;50.788;12.904;2023-09-12T12:10:43;97168.88;;;27.44;45.64
72038;BME280;59900;50.788;12.904;2023-09-12T12:13:15;97170.81;;;27.61;45.45
72038;BME280;59900;50.788;12.904;2023-09-12T12:15:41;97170.53;;;27.79;43.10
72038;BME280;59900;50.788;12.904;2023-09-12T12:18:06;97171.81;;;27.91;44.47
72038;BME280;59900;50.788;12.904;2023-09-12T12:20:31;97166.00;;;28.14;43.11
72038;BME280;59900;50.788;12.904;2023-09-12T12:22:56;97165.81;;;28.36;44.16
72038;BME280;59900;50.788;12.904;2023-09-12T12:25:22;97168.03;;;28.43;43.69
72038;BME280;59900;50.788;12.904;2023-09-12T12:27:47;97165.31;;;28.60;43.49
72038;BME280;59900;50.788;12.904;2023-09-12T12:30:13;97173.41;;;28.77;43.03
72038;BME280;59900;50.788;12.904;2023-09-12T12:32:43;97174.81;;;28.92;41.88
72038;BME280;59900;50.788;12.904;2023-09-12T12:35:17;97164.78;;;29.01;43.85
72038;BME280;59900;50.788;12.904;2023-09-12T12:37:43;97162.03;;;29.10;43.42
72038;BME280;59900;50.788;12.904;2023-09-12T12:40:11;97160.56;;;29.29;40.24
72038;BME280;59900;50.788;12.904;2023-09-12T12:42:38;97166.22;;;29.45;37.83
72038;BME280;59900;50.788;12.904;2023-09-12T12:45:18;97163.59;;;29.57;37.51
72038;BME280;59900;50.788;12.904;2023-09-12T12:47:44;97159.13;;;29.61;41.86
72038;BME280;59900;50.788;12.904;2023-09-12T12:50:17;97158.41;;;29.73;39.77
72038;BME280;59900;50.788;12.904;2023-09-12T12:52:47;97170.31;;;29.51;39.56
72038;BME280;59900;50.788;12.904;2023-09-12T12:55:13;97165.75;;;29.72;40.50
72038;BME280;59900;50.788;12.904;2023-09-12T12:57:40;97156.44;;;30.11;40.98